sensor_id;sensor_type;location;lat;lon;timestamp;P1;durP1;ratioP1;P2;durP2;ratioP2
44197;SDS011;30157;55.512;37.764;2023-02-26T00:01:20;29.98;;;12.52;;
44197;SDS011;30157;55.512;37.764;2023-02-26T00:03:47;29.13;;;14.35;;
44197;SDS011;30157;55.512;37.764;2023-02-26T00:06:14;23.38;;;10.35;;
44197;SDS011;30157;55.512;37.764;2023-02-26T00:08:40;31.73;;;15.52;;
44197;SDS011;30157;55.512;37.764;2023-02-26T00:11:06;22.40;;;10.05;;
44197;SDS011;30157;55.512;37.764;2023-02-26T00:13:32;23.92;;;11.80;;
44197;SDS011;30157;55.512;37.764;2023-02-26T00:15:59;24.63;;;13.30;;
44197;SDS011;30157;55.512;37.764;2023-02-26T00:18:25;18.23;;;8.98;;
44197;SDS011;30157;55.512;37.764;2023-02-26T00:20:52;25.60;;;11.35;;
44197;SDS011;30157;55.512;37.764;2023-02-26T00:23:17;25.60;;;11.80;;
44197;SDS011;30157;55.512;37.764;2023-02-26T00:25:44;23.85;;;11.05;;
44197;SDS011;30157;55.512;37.764;2023-02-26T00:28:10;31.55;;;14.73;;
44197;SDS011;30157;55.512;37.764;2023-02-26T00:30:37;26.08;;;11.95;;
44197;SDS011;30157;55.512;37.764;2023-02-26T00:33:03;12.88;;;6.80;;
44197;SDS011;30157;55.512;37.764;2023-02-26T00:35:30;24.27;;;13.02;;
44197;SDS011;30157;55.512;37.764;2023-02-26T00:38:03;24.13;;;11.88;;
44197;SDS011;30157;55.512;37.764;2023-02-26T00:43:09;20.25;;;9.77;;
44197;SDS011;30157;55.512;37.764;2023-02-26T00:45:42;16.50;;;8.02;;
44197;SDS011;30157;55.512;37.764;2023-02-26T00:53:33;15.20;;;8.60;;
44197;SDS011;30157;55.512;37.764;2023-02-26T00:56:09;15.27;;;8.20;;
44197;SDS011;30157;55.512;37.764;2023-02-26T00:58:35;9.38;;;5.03;;
44197;SDS011;30157;55.512;37.764;2023-02-26T01:01:00;15.52;;;7.82;;
44197;SDS011;30157;55.512;37.764;2023-02-26T01:03:27;16.77;;;8.32;;
44197;SDS011;30157;55.512;37.764;2023-02-26T01:05:53;14.13;;;7.53;;
44197;SDS011;30157;55.512;37.764;2023-02-26T01:08:28;13.00;;;6.25;;
44197;SDS011;30157;55.512;37.764;2023-02-26T01:11:01;7.43;;;4.32;;
44197;SDS011;30157;55.512;37.764;2023-02-26T01:13:27;11.23;;;6.63;;
44197;SDS011;30157;55.512;37.764;2023-02-26T01:15:54;13.10;;;7.30;;
44197;SDS011;30157;55.512;37.764;2023-02-26T01:18:31;9.32;;;5.05;;
44197;SDS011;30157;55.512;37.764;2023-02-26T01:21:22;9.93;;;4.60;;
44197;SDS011;30157;55.512;37.764;2023-02-26T01:23:55;13.55;;;7.70;;
44197;SDS011;30157;55.512;37.764;2023-02-26T01:26:22;12.75;;;6.38;;
44197;SDS011;30157;55.512;37.764;2023-02-26T01:28:51;15.50;;;7.63;;
44197;SDS011;30157;55.512;37.764;2023-02-26T01:31:24;12.77;;;6.85;;
44197;SDS011;30157;55.512;37.764;2023-02-26T01:33:57;15.50;;;8.27;;
44197;SDS011;30157;55.512;37.764;2023-02-26T01:36:30;12.48;;;5.97;;
44197;SDS011;30157;55.512;37.764;2023-02-26T01:41:42;13.65;;;6.55;;
44197;SDS011;30157;55.512;37.764;2023-02-26T01:50:22;11.38;;;6.32;;
44197;SDS011;30157;55.512;37.764;2023-02-26T01:55:42;12.07;;;5.95;;
44197;SDS011;30157;55.512;37.764;2023-02-26T01:58:10;14.05;;;7.40;;
44197;SDS011;30157;55.512;37.764;2023-02-26T02:00:36;14.55;;;7.47;;
44197;SDS011;30157;55.512;37.764;2023-02-26T02:03:02;12.82;;;6.95;;
44197;SDS011;30157;55.512;37.764;2023-02-26T02:05:32;11.15;;;5.97;;
44197;SDS011;30157;55.512;37.764;2023-02-26T02:08:04;13.70;;;6.40;;
44197;SDS011;30157;55.512;37.764;2023-02-26T02:10:30;13.73;;;7.50;;
44197;SDS011;30157;55.512;37.764;2023-02-26T02:18:46;21.98;;;9.18;;
44197;SDS011;30157;55.512;37.764;2023-02-26T02:24:24;15.05;;;6.93;;
44197;SDS011;30157;55.512;37.764;2023-02-26T02:32:13;12.32;;;7.18;;
44197;SDS011;30157;55.512;37.764;2023-02-26T02:37:31;11.27;;;6.20;;
44197;SDS011;30157;55.512;37.764;2023-02-26T02:40:03;10.82;;;5.63;;
44197;SDS011;30157;55.512;37.764;2023-02-26T02:42:54;13.40;;;6.53;;
44197;SDS011;30157;55.512;37.764;2023-02-26T02:48:13;7.10;;;3.87;;
44197;SDS011;30157;55.512;37.764;2023-02-26T02:51:15;5.85;;;3.30;;
44197;SDS011;30157;55.512;37.764;2023-02-26T02:56:19;7.97;;;4.50;;
44197;SDS011;30157;55.512;37.764;2023-02-26T02:58:58;6.72;;;4.25;;
44197;SDS011;30157;55.512;37.764;2023-02-26T03:01:30;12.48;;;6.95;;
44197;SDS011;30157;55.512;37.764;2023-02-26T03:04:01;9.38;;;4.97;;
44197;SDS011;30157;55.512;37.764;2023-02-26T03:06:33;11.40;;;6.32;;
44197;SDS011;30157;55.512;37.764;2023-02-26T03:08:59;11.70;;;6.10;;
44197;SDS011;30157;55.512;37.764;2023-02-26T03:11:26;9.77;;;6.28;;
44197;SDS011;30157;55.512;37.764;2023-02-26T03:13:52;12.50;;;6.32;;
44197;SDS011;30157;55.512;37.764;2023-02-26T03:27:45;12.95;;;7.85;;
44197;SDS011;30157;55.512;37.764;2023-02-26T03:33:18;15.60;;;9.25;;
44197;SDS011;30157;55.512;37.764;2023-02-26T03:35:51;20.73;;;9.70;;
44197;SDS011;30157;55.512;37.764;2023-02-26T03:38:26;16.33;;;8.88;;
44197;SDS011;30157;55.512;37.764;2023-02-26T03:41:16;16.45;;;9.30;;
44197;SDS011;30157;55.512;37.764;2023-02-26T03:43:50;16.92;;;9.52;;
44197;SDS011;30157;55.512;37.764;2023-02-26T03:46:25;18.20;;;9.63;;
44197;SDS011;30157;55.512;37.764;2023-02-26T03:48:55;16.83;;;9.10;;
44197;SDS011;30157;55.512;37.764;2023-02-26T03:51:24;18.33;;;9.25;;
44197;SDS011;30157;55.512;37.764;2023-02-26T03:54:31;20.23;;;10.82;;
44197;SDS011;30157;55.512;37.764;2023-02-26T03:57:36;19.23;;;9.23;;
44197;SDS011;30157;55.512;37.764;2023-02-26T04:00:22;16.30;;;9.68;;
44197;SDS011;30157;55.512;37.764;2023-02-26T04:02:59;17.65;;;8.57;;
44197;SDS011;30157;55.512;37.764;2023-02-26T04:05:34;22.90;;;11.18;;
44197;SDS011;30157;55.512;37.764;2023-02-26T04:08:05;23.88;;;11.98;;
44197;SDS011;30157;55.512;37.764;2023-02-26T04:10:33;19.00;;;10.50;;
44197;SDS011;30157;55.512;37.764;2023-02-26T04:13:04;21.73;;;11.45;;
44197;SDS011;30157;55.512;37.764;2023-02-26T04:15:30;21.88;;;12.00;;
44197;SDS011;30157;55.512;37.764;2023-02-26T04:17:56;18.15;;;10.43;;
44197;SDS011;30157;55.512;37.764;2023-02-26T04:20:21;16.50;;;9.32;;
44197;SDS011;30157;55.512;37.764;2023-02-26T04:22:47;15.30;;;9.43;;
44197;SDS011;30157;55.512;37.764;2023-02-26T04:25:13;20.35;;;11.18;;
44197;SDS011;30157;55.512;37.764;2023-02-26T04:27:38;21.30;;;10.45;;
44197;SDS011;30157;55.512;37.764;2023-02-26T04:30:04;25.10;;;12.23;;
44197;SDS011;30157;55.512;37.764;2023-02-26T04:32:31;21.23;;;10.93;;
44197;SDS011;30157;55.512;37.764;2023-02-26T04:34:57;18.02;;;9.07;;
44197;SDS011;30157;55.512;37.764;2023-02-26T04:37:22;14.80;;;8.40;;
44197;SDS011;30157;55.512;37.764;2023-02-26T04:39:48;14.68;;;8.35;;
44197;SDS011;30157;55.512;37.764;2023-02-26T04:42:14;14.63;;;8.27;;
44197;SDS011;30157;55.512;37.764;2023-02-26T04:44:40;14.32;;;8.20;;
44197;SDS011;30157;55.512;37.764;2023-02-26T04:47:05;14.75;;;7.85;;
44197;SDS011;30157;55.512;37.764;2023-02-26T04:49:33;12.05;;;7.18;;
44197;SDS011;30157;55.512;37.764;2023-02-26T04:52:02;11.32;;;6.47;;
44197;SDS011;30157;55.512;37.764;2023-02-26T04:54:27;10.57;;;6.70;;
44197;SDS011;30157;55.512;37.764;2023-02-26T04:56:53;11.32;;;6.75;;
44197;SDS011;30157;55.512;37.764;2023-02-26T04:59:19;11.13;;;6.50;;
44197;SDS011;30157;55.512;37.764;2023-02-26T05:01:44;9.77;;;5.70;;
44197;SDS011;30157;55.512;37.764;2023-02-26T05:04:10;7.75;;;4.57;;
44197;SDS011;30157;55.512;37.764;2023-02-26T05:06:38;8.27;;;4.53;;
44197;SDS011;30157;55.512;37.764;2023-02-26T05:09:03;7.68;;;4.07;;
44197;SDS011;30157;55.512;37.764;2023-02-26T05:11:29;8.05;;;4.38;;
44197;SDS011;30157;55.512;37.764;2023-02-26T05:13:55;7.30;;;3.75;;
44197;SDS011;30157;55.512;37.764;2023-02-26T05:16:20;4.93;;;3.10;;
44197;SDS011;30157;55.512;37.764;2023-02-26T05:18:46;7.20;;;3.47;;
44197;SDS011;30157;55.512;37.764;2023-02-26T05:21:12;4.95;;;2.80;;
44197;SDS011;30157;55.512;37.764;2023-02-26T05:23:38;6.32;;;2.70;;
44197;SDS011;30157;55.512;37.764;2023-02-26T05:26:03;4.65;;;2.60;;
44197;SDS011;30157;55.512;37.764;2023-02-26T05:28:29;2.88;;;2.05;;
44197;SDS011;30157;55.512;37.764;2023-02-26T05:30:56;2.72;;;1.90;;
44197;SDS011;30157;55.512;37.764;2023-02-26T05:33:22;3.22;;;1.90;;
44197;SDS011;30157;55.512;37.764;2023-02-26T05:35:47;2.20;;;1.45;;
44197;SDS011;30157;55.512;37.764;2023-02-26T05:38:13;3.17;;;1.58;;
44197;SDS011;30157;55.512;37.764;2023-02-26T05:40:39;2.70;;;1.77;;
44197;SDS011;30157;55.512;37.764;2023-02-26T05:43:05;4.10;;;1.90;;
44197;SDS011;30157;55.512;37.764;2023-02-26T05:45:30;2.92;;;1.77;;
44197;SDS011;30157;55.512;37.764;2023-02-26T05:47:56;2.80;;;1.70;;
44197;SDS011;30157;55.512;37.764;2023-02-26T05:50:28;1.92;;;1.45;;
44197;SDS011;30157;55.512;37.764;2023-02-26T05:52:56;2.53;;;1.70;;
44197;SDS011;30157;55.512;37.764;2023-02-26T05:55:22;2.40;;;1.60;;
44197;SDS011;30157;55.512;37.764;2023-02-26T05:57:47;2.85;;;1.23;;
44197;SDS011;30157;55.512;37.764;2023-02-26T06:00:13;1.90;;;1.08;;
44197;SDS011;30157;55.512;37.764;2023-02-26T06:02:40;2.13;;;1.38;;
44197;SDS011;30157;55.512;37.764;2023-02-26T06:05:06;2.03;;;1.40;;
44197;SDS011;30157;55.512;37.764;2023-02-26T06:07:32;2.10;;;1.40;;
44197;SDS011;30157;55.512;37.764;2023-02-26T06:09:58;2.30;;;1.58;;
44197;SDS011;30157;55.512;37.764;2023-02-26T06:12:23;3.88;;;1.73;;
44197;SDS011;30157;55.512;37.764;2023-02-26T06:14:49;1.98;;;1.50;;
44197;SDS011;30157;55.512;37.764;2023-02-26T06:17:15;4.00;;;1.88;;
44197;SDS011;30157;55.512;37.764;2023-02-26T06:19:41;3.38;;;2.15;;
44197;SDS011;30157;55.512;37.764;2023-02-26T06:22:06;3.53;;;2.17;;
44197;SDS011;30157;55.512;37.764;2023-02-26T06:24:32;3.50;;;1.73;;
44197;SDS011;30157;55.512;37.764;2023-02-26T06:26:58;3.70;;;2.47;;
44197;SDS011;30157;55.512;37.764;2023-02-26T06:29:24;4.90;;;2.88;;
44197;SDS011;30157;55.512;37.764;2023-02-26T06:31:49;5.90;;;3.25;;
44197;SDS011;30157;55.512;37.764;2023-02-26T06:34:15;6.32;;;3.58;;
44197;SDS011;30157;55.512;37.764;2023-02-26T06:36:41;5.15;;;3.13;;
44197;SDS011;30157;55.512;37.764;2023-02-26T06:39:07;4.57;;;2.50;;
44197;SDS011;30157;55.512;37.764;2023-02-26T06:41:33;5.95;;;3.13;;
44197;SDS011;30157;55.512;37.764;2023-02-26T06:43:58;7.47;;;3.40;;
44197;SDS011;30157;55.512;37.764;2023-02-26T06:46:24;6.88;;;3.42;;
44197;SDS011;30157;55.512;37.764;2023-02-26T06:48:50;4.65;;;3.58;;
44197;SDS011;30157;55.512;37.764;2023-02-26T06:51:16;3.70;;;2.40;;
44197;SDS011;30157;55.512;37.764;2023-02-26T06:53:42;3.92;;;2.75;;
44197;SDS011;30157;55.512;37.764;2023-02-26T06:56:08;3.38;;;2.20;;
44197;SDS011;30157;55.512;37.764;2023-02-26T06:58:33;4.68;;;2.85;;
44197;SDS011;30157;55.512;37.764;2023-02-26T07:00:59;5.40;;;3.15;;
44197;SDS011;30157;55.512;37.764;2023-02-26T07:03:25;5.13;;;3.20;;
44197;SDS011;30157;55.512;37.764;2023-02-26T07:05:50;4.45;;;2.58;;
44197;SDS011;30157;55.512;37.764;2023-02-26T07:08:16;5.10;;;2.95;;
44197;SDS011;30157;55.512;37.764;2023-02-26T07:10:42;4.57;;;2.85;;
44197;SDS011;30157;55.512;37.764;2023-02-26T07:13:10;4.88;;;3.00;;
44197;SDS011;30157;55.512;37.764;2023-02-26T07:15:35;3.88;;;3.13;;
44197;SDS011;30157;55.512;37.764;2023-02-26T07:18:01;5.10;;;2.72;;
44197;SDS011;30157;55.512;37.764;2023-02-26T07:20:29;6.50;;;3.75;;
44197;SDS011;30157;55.512;37.764;2023-02-26T07:22:55;8.80;;;4.03;;
44197;SDS011;30157;55.512;37.764;2023-02-26T07:25:21;7.13;;;4.07;;
44197;SDS011;30157;55.512;37.764;2023-02-26T07:27:47;3.95;;;3.13;;
44197;SDS011;30157;55.512;37.764;2023-02-26T07:30:13;3.30;;;2.50;;
44197;SDS011;30157;55.512;37.764;2023-02-26T07:32:39;3.33;;;2.50;;
44197;SDS011;30157;55.512;37.764;2023-02-26T07:35:05;2.90;;;2.25;;
44197;SDS011;30157;55.512;37.764;2023-02-26T07:37:31;3.85;;;2.33;;
44197;SDS011;30157;55.512;37.764;2023-02-26T07:39:56;3.38;;;2.40;;
44197;SDS011;30157;55.512;37.764;2023-02-26T07:42:24;3.83;;;2.75;;
44197;SDS011;30157;55.512;37.764;2023-02-26T07:44:51;5.20;;;2.97;;
44197;SDS011;30157;55.512;37.764;2023-02-26T07:47:17;4.47;;;2.45;;
44197;SDS011;30157;55.512;37.764;2023-02-26T07:49:42;3.88;;;2.80;;
44197;SDS011;30157;55.512;37.764;2023-02-26T07:52:08;3.97;;;2.60;;
44197;SDS011;30157;55.512;37.764;2023-02-26T07:54:34;4.38;;;2.35;;
44197;SDS011;30157;55.512;37.764;2023-02-26T07:57:01;3.72;;;2.55;;
44197;SDS011;30157;55.512;37.764;2023-02-26T07:59:27;3.42;;;2.00;;
44197;SDS011;30157;55.512;37.764;2023-02-26T08:01:55;3.95;;;1.70;;
44197;SDS011;30157;55.512;37.764;2023-02-26T08:04:21;3.03;;;1.70;;
44197;SDS011;30157;55.512;37.764;2023-02-26T08:06:47;3.58;;;2.10;;
44197;SDS011;30157;55.512;37.764;2023-02-26T08:09:13;3.10;;;2.15;;
44197;SDS011;30157;55.512;37.764;2023-02-26T08:11:38;5.07;;;2.42;;
44197;SDS011;30157;55.512;37.764;2023-02-26T08:14:08;5.18;;;2.33;;
44197;SDS011;30157;55.512;37.764;2023-02-26T08:16:35;3.45;;;2.10;;
44197;SDS011;30157;55.512;37.764;2023-02-26T08:19:00;5.05;;;2.70;;
44197;SDS011;30157;55.512;37.764;2023-02-26T08:21:26;3.60;;;1.85;;
44197;SDS011;30157;55.512;37.764;2023-02-26T08:23:53;3.38;;;2.00;;
44197;SDS011;30157;55.512;37.764;2023-02-26T08:26:18;4.88;;;2.42;;
44197;SDS011;30157;55.512;37.764;2023-02-26T08:28:44;5.00;;;2.25;;
44197;SDS011;30157;55.512;37.764;2023-02-26T08:31:11;3.70;;;2.15;;
44197;SDS011;30157;55.512;37.764;2023-02-26T08:33:38;3.45;;;2.35;;
44197;SDS011;30157;55.512;37.764;2023-02-26T08:36:04;3.58;;;1.92;;
44197;SDS011;30157;55.512;37.764;2023-02-26T08:38:30;2.90;;;1.88;;
44197;SDS011;30157;55.512;37.764;2023-02-26T08:40:56;2.95;;;1.75;;
44197;SDS011;30157;55.512;37.764;2023-02-26T08:43:23;2.90;;;1.55;;
44197;SDS011;30157;55.512;37.764;2023-02-26T08:45:52;2.40;;;1.50;;
44197;SDS011;30157;55.512;37.764;2023-02-26T08:48:20;2.97;;;1.70;;
44197;SDS011;30157;55.512;37.764;2023-02-26T08:50:45;3.97;;;1.40;;
44197;SDS011;30157;55.512;37.764;2023-02-26T08:53:12;3.80;;;1.88;;
44197;SDS011;30157;55.512;37.764;2023-02-26T08:55:38;2.95;;;1.83;;
44197;SDS011;30157;55.512;37.764;2023-02-26T08:58:04;2.70;;;1.45;;
44197;SDS011;30157;55.512;37.764;2023-02-26T09:00:30;2.17;;;1.20;;
44197;SDS011;30157;55.512;37.764;2023-02-26T09:02:55;1.75;;;1.20;;
44197;SDS011;30157;55.512;37.764;2023-02-26T09:05:21;1.67;;;1.10;;
44197;SDS011;30157;55.512;37.764;2023-02-26T09:07:47;2.05;;;1.25;;
44197;SDS011;30157;55.512;37.764;2023-02-26T09:10:13;2.75;;;1.50;;
44197;SDS011;30157;55.512;37.764;2023-02-26T09:12:39;3.60;;;1.65;;
44197;SDS011;30157;55.512;37.764;2023-02-26T09:15:05;2.92;;;1.40;;
44197;SDS011;30157;55.512;37.764;2023-02-26T09:17:32;4.32;;;1.67;;
44197;SDS011;30157;55.512;37.764;2023-02-26T09:19:58;2.08;;;1.35;;
44197;SDS011;30157;55.512;37.764;2023-02-26T09:22:24;3.95;;;1.58;;
44197;SDS011;30157;55.512;37.764;2023-02-26T09:24:50;3.17;;;1.90;;
44197;SDS011;30157;55.512;37.764;2023-02-26T09:27:16;2.05;;;1.50;;
44197;SDS011;30157;55.512;37.764;2023-02-26T09:29:42;1.73;;;1.10;;
44197;SDS011;30157;55.512;37.764;2023-02-26T09:32:08;2.15;;;1.25;;
44197;SDS011;30157;55.512;37.764;2023-02-26T09:34:34;2.40;;;1.02;;
44197;SDS011;30157;55.512;37.764;2023-02-26T09:37:01;3.55;;;1.20;;
44197;SDS011;30157;55.512;37.764;2023-02-26T09:39:28;1.85;;;1.00;;
44197;SDS011;30157;55.512;37.764;2023-02-26T09:41:54;1.33;;;1.10;;
44197;SDS011;30157;55.512;37.764;2023-02-26T09:44:27;3.13;;;1.17;;
44197;SDS011;30157;55.512;37.764;2023-02-26T09:47:03;4.28;;;1.33;;
44197;SDS011;30157;55.512;37.764;2023-02-26T09:55:36;3.63;;;1.42;;
44197;SDS011;30157;55.512;37.764;2023-02-26T09:58:33;1.70;;;1.20;;
44197;SDS011;30157;55.512;37.764;2023-02-26T10:06:33;2.40;;;1.30;;
44197;SDS011;30157;55.512;37.764;2023-02-26T10:17:01;2.28;;;1.17;;
44197;SDS011;30157;55.512;37.764;2023-02-26T10:19:33;2.85;;;1.05;;
44197;SDS011;30157;55.512;37.764;2023-02-26T10:22:06;4.22;;;1.75;;
44197;SDS011;30157;55.512;37.764;2023-02-26T10:24:43;3.50;;;2.00;;
44197;SDS011;30157;55.512;37.764;2023-02-26T10:27:20;3.05;;;1.63;;
44197;SDS011;30157;55.512;37.764;2023-02-26T10:29:57;3.13;;;1.50;;
44197;SDS011;30157;55.512;37.764;2023-02-26T10:32:40;2.47;;;1.48;;
44197;SDS011;30157;55.512;37.764;2023-02-26T10:35:15;1.73;;;1.30;;
44197;SDS011;30157;55.512;37.764;2023-02-26T10:40:27;2.78;;;1.50;;
44197;SDS011;30157;55.512;37.764;2023-02-26T10:43:07;3.38;;;1.50;;
44197;SDS011;30157;55.512;37.764;2023-02-26T10:46:36;1.88;;;1.40;;
44197;SDS011;30157;55.512;37.764;2023-02-26T10:54:23;4.78;;;1.70;;
44197;SDS011;30157;55.512;37.764;2023-02-26T10:56:54;2.88;;;1.70;;
44197;SDS011;30157;55.512;37.764;2023-02-26T10:59:19;3.97;;;1.48;;
44197;SDS011;30157;55.512;37.764;2023-02-26T11:01:45;2.20;;;1.30;;
44197;SDS011;30157;55.512;37.764;2023-02-26T11:04:15;3.63;;;2.00;;
44197;SDS011;30157;55.512;37.764;2023-02-26T11:06:48;3.28;;;1.95;;
44197;SDS011;30157;55.512;37.764;2023-02-26T11:09:30;2.65;;;1.73;;
44197;SDS011;30157;55.512;37.764;2023-02-26T11:12:06;2.20;;;1.50;;
44197;SDS011;30157;55.512;37.764;2023-02-26T11:14:43;2.80;;;1.40;;
44197;SDS011;30157;55.512;37.764;2023-02-26T11:17:18;1.92;;;1.40;;
44197;SDS011;30157;55.512;37.764;2023-02-26T11:19:58;3.28;;;1.77;;
44197;SDS011;30157;55.512;37.764;2023-02-26T11:22:30;2.45;;;1.63;;
44197;SDS011;30157;55.512;37.764;2023-02-26T11:24:58;2.50;;;1.60;;
44197;SDS011;30157;55.512;37.764;2023-02-26T11:27:25;2.15;;;1.70;;
44197;SDS011;30157;55.512;37.764;2023-02-26T11:29:57;2.63;;;1.80;;
44197;SDS011;30157;55.512;37.764;2023-02-26T11:32:33;2.53;;;1.73;;
44197;SDS011;30157;55.512;37.764;2023-02-26T11:35:01;3.38;;;1.77;;
44197;SDS011;30157;55.512;37.764;2023-02-26T11:37:35;3.35;;;1.80;;
44197;SDS011;30157;55.512;37.764;2023-02-26T11:40:06;4.15;;;2.00;;
44197;SDS011;30157;55.512;37.764;2023-02-26T11:42:40;3.20;;;2.08;;
44197;SDS011;30157;55.512;37.764;2023-02-26T11:45:13;3.47;;;2.00;;
44197;SDS011;30157;55.512;37.764;2023-02-26T11:47:42;4.53;;;2.22;;
44197;SDS011;30157;55.512;37.764;2023-02-26T11:50:15;2.90;;;2.08;;
44197;SDS011;30157;55.512;37.764;2023-02-26T11:57:49;6.32;;;3.28;;
44197;SDS011;30157;55.512;37.764;2023-02-26T12:00:35;3.75;;;2.53;;
44197;SDS011;30157;55.512;37.764;2023-02-26T12:03:03;3.00;;;2.13;;
44197;SDS011;30157;55.512;37.764;2023-02-26T12:05:33;3.13;;;1.92;;
44197;SDS011;30157;55.512;37.764;2023-02-26T12:08:01;7.03;;;3.70;;
44197;SDS011;30157;55.512;37.764;2023-02-26T12:10:47;3.53;;;2.25;;
44197;SDS011;30157;55.512;37.764;2023-02-26T12:13:41;4.07;;;2.50;;
44197;SDS011;30157;55.512;37.764;2023-02-26T12:26:54;4.18;;;2.22;;
44197;SDS011;30157;55.512;37.764;2023-02-26T12:29:52;3.10;;;1.90;;
44197;SDS011;30157;55.512;37.764;2023-02-26T12:32:33;2.92;;;1.90;;
44197;SDS011;30157;55.512;37.764;2023-02-26T12:48:53;2.92;;;1.95;;
44197;SDS011;30157;55.512;37.764;2023-02-26T13:05:11;2.33;;;1.50;;
44197;SDS011;30157;55.512;37.764;2023-02-26T13:10:40;2.97;;;1.70;;
44197;SDS011;30157;55.512;37.764;2023-02-26T13:16:18;2.67;;;1.55;;
44197;SDS011;30157;55.512;37.764;2023-02-26T13:19:07;4.05;;;1.80;;
44197;SDS011;30157;55.512;37.764;2023-02-26T13:21:47;4.72;;;2.00;;
44197;SDS011;30157;55.512;37.764;2023-02-26T13:27:21;5.28;;;3.20;;
44197;SDS011;30157;55.512;37.764;2023-02-26T13:29:58;4.70;;;2.70;;
44197;SDS011;30157;55.512;37.764;2023-02-26T13:32:39;15.10;;;7.53;;
44197;SDS011;30157;55.512;37.764;2023-02-26T13:35:16;4.72;;;3.20;;
44197;SDS011;30157;55.512;37.764;2023-02-26T13:37:46;4.10;;;2.83;;
44197;SDS011;30157;55.512;37.764;2023-02-26T13:45:55;6.63;;;3.58;;
44197;SDS011;30157;55.512;37.764;2023-02-26T13:54:00;5.43;;;3.85;;
44197;SDS011;30157;55.512;37.764;2023-02-26T14:01:33;8.63;;;4.00;;
44197;SDS011;30157;55.512;37.764;2023-02-26T14:06:44;6.10;;;4.20;;
44197;SDS011;30157;55.512;37.764;2023-02-26T14:11:56;7.20;;;3.90;;
44197;SDS011;30157;55.512;37.764;2023-02-26T14:14:25;6.45;;;4.43;;
44197;SDS011;30157;55.512;37.764;2023-02-26T14:20:26;6.45;;;4.65;;
44197;SDS011;30157;55.512;37.764;2023-02-26T14:27:33;8.75;;;5.10;;
44197;SDS011;30157;55.512;37.764;2023-02-26T14:34:55;11.20;;;6.03;;
44197;SDS011;30157;55.512;37.764;2023-02-26T14:37:29;12.68;;;6.10;;
44197;SDS011;30157;55.512;37.764;2023-02-26T14:40:03;9.57;;;6.00;;
44197;SDS011;30157;55.512;37.764;2023-02-26T14:47:46;8.55;;;5.68;;
44197;SDS011;30157;55.512;37.764;2023-02-26T14:50:14;9.20;;;6.13;;
44197;SDS011;30157;55.512;37.764;2023-02-26T14:52:57;13.68;;;5.93;;
44197;SDS011;30157;55.512;37.764;2023-02-26T14:55:54;9.68;;;6.25;;
44197;SDS011;30157;55.512;37.764;2023-02-26T15:06:54;9.60;;;5.70;;
44197;SDS011;30157;55.512;37.764;2023-02-26T15:09:54;9.93;;;5.85;;
44197;SDS011;30157;55.512;37.764;2023-02-26T15:15:27;10.57;;;6.32;;
44197;SDS011;30157;55.512;37.764;2023-02-26T15:23:46;11.05;;;6.28;;
44197;SDS011;30157;55.512;37.764;2023-02-26T15:28:53;14.10;;;7.72;;
44197;SDS011;30157;55.512;37.764;2023-02-26T15:36:49;10.48;;;5.70;;
44197;SDS011;30157;55.512;37.764;2023-02-26T15:39:22;12.90;;;8.00;;
44197;SDS011;30157;55.512;37.764;2023-02-26T15:41:49;11.23;;;6.85;;
44197;SDS011;30157;55.512;37.764;2023-02-26T15:44:24;11.88;;;7.00;;
44197;SDS011;30157;55.512;37.764;2023-02-26T15:46:57;11.85;;;7.20;;
44197;SDS011;30157;55.512;37.764;2023-02-26T15:49:32;11.38;;;7.13;;
44197;SDS011;30157;55.512;37.764;2023-02-26T15:52:02;12.45;;;8.00;;
44197;SDS011;30157;55.512;37.764;2023-02-26T15:57:23;12.55;;;7.55;;
44197;SDS011;30157;55.512;37.764;2023-02-26T15:59:54;12.32;;;6.78;;
44197;SDS011;30157;55.512;37.764;2023-02-26T16:02:37;13.10;;;7.30;;
44197;SDS011;30157;55.512;37.764;2023-02-26T16:05:05;11.65;;;7.35;;
44197;SDS011;30157;55.512;37.764;2023-02-26T16:07:32;14.45;;;7.30;;
44197;SDS011;30157;55.512;37.764;2023-02-26T16:10:06;13.40;;;7.28;;
44197;SDS011;30157;55.512;37.764;2023-02-26T16:12:40;12.73;;;7.38;;
44197;SDS011;30157;55.512;37.764;2023-02-26T16:15:11;12.82;;;6.82;;
44197;SDS011;30157;55.512;37.764;2023-02-26T16:17:41;11.00;;;6.72;;
44197;SDS011;30157;55.512;37.764;2023-02-26T16:20:13;11.20;;;6.32;;
44197;SDS011;30157;55.512;37.764;2023-02-26T16:22:42;12.15;;;6.80;;
44197;SDS011;30157;55.512;37.764;2023-02-26T16:25:19;12.32;;;6.68;;
44197;SDS011;30157;55.512;37.764;2023-02-26T16:28:01;12.55;;;7.00;;
44197;SDS011;30157;55.512;37.764;2023-02-26T16:30:34;16.80;;;8.77;;
44197;SDS011;30157;55.512;37.764;2023-02-26T16:33:02;12.13;;;7.05;;
44197;SDS011;30157;55.512;37.764;2023-02-26T16:35:32;13.75;;;7.32;;
44197;SDS011;30157;55.512;37.764;2023-02-26T16:38:10;13.80;;;7.20;;
44197;SDS011;30157;55.512;37.764;2023-02-26T16:40:43;13.02;;;7.28;;
44197;SDS011;30157;55.512;37.764;2023-02-26T16:45:53;13.93;;;7.65;;
44197;SDS011;30157;55.512;37.764;2023-02-26T16:48:22;12.00;;;7.00;;
44197;SDS011;30157;55.512;37.764;2023-02-26T16:51:04;13.70;;;7.80;;
44197;SDS011;30157;55.512;37.764;2023-02-26T16:56:11;10.98;;;6.78;;
44197;SDS011;30157;55.512;37.764;2023-02-26T16:58:42;14.02;;;7.60;;
44197;SDS011;30157;55.512;37.764;2023-02-26T17:01:13;11.77;;;6.75;;
44197;SDS011;30157;55.512;37.764;2023-02-26T17:03:47;14.13;;;7.57;;
44197;SDS011;30157;55.512;37.764;2023-02-26T17:06:19;14.05;;;7.72;;
44197;SDS011;30157;55.512;37.764;2023-02-26T17:08:49;13.30;;;7.00;;
44197;SDS011;30157;55.512;37.764;2023-02-26T17:11:28;10.57;;;6.05;;
44197;SDS011;30157;55.512;37.764;2023-02-26T17:14:10;12.27;;;6.78;;
44197;SDS011;30157;55.512;37.764;2023-02-26T17:16:39;13.15;;;6.32;;
44197;SDS011;30157;55.512;37.764;2023-02-26T17:19:05;11.98;;;6.60;;
44197;SDS011;30157;55.512;37.764;2023-02-26T17:21:31;10.00;;;6.07;;
44197;SDS011;30157;55.512;37.764;2023-02-26T17:23:57;12.27;;;6.53;;
44197;SDS011;30157;55.512;37.764;2023-02-26T17:26:22;11.40;;;6.53;;
44197;SDS011;30157;55.512;37.764;2023-02-26T17:28:49;12.38;;;6.50;;
44197;SDS011;30157;55.512;37.764;2023-02-26T17:31:15;11.60;;;6.00;;
44197;SDS011;30157;55.512;37.764;2023-02-26T17:33:41;13.25;;;5.78;;
44197;SDS011;30157;55.512;37.764;2023-02-26T17:36:13;10.48;;;6.50;;
44197;SDS011;30157;55.512;37.764;2023-02-26T17:38:40;12.13;;;6.78;;
44197;SDS011;30157;55.512;37.764;2023-02-26T17:41:13;10.05;;;6.88;;
44197;SDS011;30157;55.512;37.764;2023-02-26T17:43:40;12.30;;;7.05;;
44197;SDS011;30157;55.512;37.764;2023-02-26T17:46:08;12.35;;;6.63;;
44197;SDS011;30157;55.512;37.764;2023-02-26T17:48:35;10.73;;;6.03;;
44197;SDS011;30157;55.512;37.764;2023-02-26T17:51:02;13.45;;;6.55;;
44197;SDS011;30157;55.512;37.764;2023-02-26T17:53:28;11.80;;;6.07;;
44197;SDS011;30157;55.512;37.764;2023-02-26T17:55:58;14.02;;;7.93;;
44197;SDS011;30157;55.512;37.764;2023-02-26T17:58:25;10.32;;;5.80;;
44197;SDS011;30157;55.512;37.764;2023-02-26T18:00:53;10.02;;;5.68;;
44197;SDS011;30157;55.512;37.764;2023-02-26T18:03:19;11.98;;;6.68;;
44197;SDS011;30157;55.512;37.764;2023-02-26T18:05:46;11.80;;;6.68;;
44197;SDS011;30157;55.512;37.764;2023-02-26T18:08:23;10.43;;;6.10;;
44197;SDS011;30157;55.512;37.764;2023-02-26T18:10:49;11.43;;;6.60;;
44197;SDS011;30157;55.512;37.764;2023-02-26T18:13:16;11.82;;;6.68;;
44197;SDS011;30157;55.512;37.764;2023-02-26T18:15:45;11.23;;;6.68;;